• Join FlightAware (Why Join?)
  • Login
  • US Flag 
12:31AM EDT


 

Airport Tracker/Info


-or-


 

Live Flight TrackerFlight Track Log ✈ UPS110 ✈ 05-May-2013 ✈ PANC - RJAA / NRT

Flight Track Log - Related Links

Times and Time Zones

All times are in EDT time to prevent confusion due to time zone crossing. See the UPS110 flight status page for this flight to view local times or setup timezone preferences in your user account.

Time Position Orientation Groundspeed Altitude Reporting Facility
EDT Latitude Longitude Course Direction KTS MPH feet Rate Location/Type
11:26AM 61.1930 -150.0110 343° North 153 176 600  Level FlightAware
11:26AM 61.2040 -150.0190 341° North 146 168 1,400 1,980 Climbing FlightAware
11:26AM 61.2210 -150.0520 317° Northwest 188 216 2,100 1,560 Climbing FlightAware
11:27AM 61.2360 -150.0770 321° Northwest 208 239 2,700 2,040 Climbing FlightAware
11:27AM 61.2460 -150.0950 319° Northwest 216 249 3,300 1,800 Climbing FlightAware
11:27AM 61.2580 -150.1200 315° West 242 278 3,600 1,560 Climbing FlightAware
11:27AM 61.2650 -150.1510 295° West 256 295 4,100 2,640 Climbing FlightAware
11:28AM 61.2660 -150.1750 275° West 257 296 4,700 3,180 Climbing FlightAware
11:28AM 61.2660 -150.3150 270° West 264 304 7,600 2,820 Climbing FlightAware
11:29AM 61.2680 -150.4020 273° West 278 320 9,000 2,640 Climbing FlightAware
11:29AM 61.2690 -150.4400 273° West 275 316 9,800 2,280 Climbing FlightAware
11:30AM 61.2710 -150.5670 272° West 309 356 11,300 1,860 Climbing FlightAware
11:31AM 61.2720 -150.6820 271° West 351 404 12,300 2,460 Climbing FlightAware
11:31AM 61.2730 -150.7970 271° West 363 418 14,200 3,420 Climbing FlightAware
11:32AM 61.2760 -150.9560 272° West 369 425 16,900 3,420 Climbing FlightAware
11:32AM 61.2770 -151.0640 271° West 377 434 18,500 3,000 Climbing FlightAware
11:33AM 61.2780 -151.2330 271° West 387 445 20,700 2,880 Climbing FlightAware
11:34AM 61.2800 -151.3850 272° West 395 455 22,600 2,580 Climbing FlightAware
11:35AM 61.2810 -151.5320 271° West 402 463 24,200 2,400 Climbing FlightAware
11:35AM 61.2820 -151.7110 271° West 411 473 26,000 2,280 Climbing FlightAware
11:36AM 61.2820 -151.7870 270° West 416 479 26,700 2,160 Climbing FlightAware
11:36AM 61.2830 -151.9490 271° West 420 483 28,200 2,460 Climbing FlightAware
11:37AM 61.2840 -152.1070 271° West 413 475 30,000 2,400 Climbing FlightAware
11:38AM 61.2850 -152.2850 271° West 412 474 31,600 1,740 Climbing FlightAware
11:38AM 61.2850 -152.4050 270° West 419 482 32,200 1,320 Climbing FlightAware
11:39AM 61.2860 -152.6290 271° West 427 491 33,500 1,500 Climbing FlightAware
11:40AM 61.2860 -152.7520 270° West 424 488 34,400 1,440 Climbing FlightAware
11:40AM 61.2860 -152.9150 270° West 427 491 35,200 1,200 Climbing FlightAware
11:41AM 61.2860 -153.0590 270° West 429 494 35,900 480 Climbing FlightAware
11:42AM 61.2850 -153.2850 270° West 438 504 36,000 60 Climbing FlightAware
11:42AM 61.2850 -153.4380 270° West 438 504 36,000  Level FlightAware
11:43AM 61.2840 -153.6000 269° West 435 501 36,000  Level FlightAware
11:44AM 61.2830 -153.7860 269° West 433 498 36,000  Level FlightAware
11:44AM 61.2820 -153.9130 269° West 430 495 36,000  Level FlightAware
11:45AM 61.2810 -154.0830 269° West 430 495 36,000  Level FlightAware
11:46AM 61.2790 -154.2610 269° West 427 491 36,000  Level FlightAware
11:47AM 61.2760 -154.5550 269° West 426 490 36,000  Level FlightAware
11:48AM 61.2750 -154.6950 269° West 426 490 36,000  Level FlightAware
11:48AM 61.2720 -154.8700 268° West 426 490 36,000  Level FlightAware
11:49AM 61.2710 -154.9740 269° West 426 490 36,000  Level FlightAware
11:50AM 61.2700 -155.1130 269° West 426 490 36,000  Level FlightAware
11:50AM 61.2690 -155.2180 269° West 426 490 36,000  Level FlightAware
11:51AM 61.2690 -155.3230 270° West 426 490 36,000  Level FlightAware
11:51AM 61.2680 -155.4270 269° West 426 490 36,000  Level FlightAware
11:52AM 61.2670 -155.5320 269° West 426 490 36,000  Level FlightAware
11:52AM 61.2660 -155.6710 269° West 426 490 36,000  Level FlightAware
11:53AM 61.2640 -155.8100 268° West 426 490 36,000  Level FlightAware
11:54AM 61.2630 -155.9850 269° West 426 490 36,000  Level FlightAware
11:54AM 61.2620 -156.0890 269° West 426 490 36,000  Level FlightAware
11:55AM 61.2610 -156.2280 269° West 426 490 36,000  Level FlightAware
11:56AM 61.2600 -156.3680 269° West 426 490 36,000  Level FlightAware
11:56AM 61.2590 -156.5070 269° West 426 490 36,000  Level FlightAware
11:57AM 61.2580 -156.6110 269° West 426 490 36,000  Level FlightAware
11:57AM 61.2560 -156.7510 268° West 426 490 36,000  Level FlightAware
11:58AM 61.1667 -157.3833 268° West 430 495 36,000  Level Anchorage Center
11:59AM 61.1500 -157.6333 262° West 430 495 36,000  Level Anchorage Center
12:00PM 61.1333 -157.8833 262° West 420 483 36,000  Level Anchorage Center
12:01PM 61.1167 -158.1333 262° West 430 495 36,000  Level Anchorage Center
12:02PM 61.1000 -158.3667 262° West 430 495 36,000  Level Anchorage Center
12:03PM 61.0833 -158.6167 262° West 430 495 36,000  Level Anchorage Center
12:04PM 61.0667 -158.8667 262° West 430 495 36,000  Level Anchorage Center
12:05PM 61.0500 -159.1167 262° West 430 495 36,000  Level Anchorage Center
12:06PM 61.0333 -159.3667 262° West 430 495 36,000  Level Anchorage Center
12:07PM 61.0167 -159.6000 262° West 430 495 36,000  Level Anchorage Center
12:08PM 61.0000 -159.8500 262° West 430 495 36,000  Level Anchorage Center
12:09PM 60.9833 -160.1000 262° West 430 495 36,000  Level Anchorage Center
12:10PM 60.9667 -160.3333 262° West 430 495 36,000  Level Anchorage Center
12:11PM 60.9500 -160.5833 262° West 430 495 36,000  Level Anchorage Center
12:12PM 60.9333 -160.8333 262° West 430 495 36,000  Level Anchorage Center
12:14PM 60.9167 -161.0667 262° West 420 483 36,000  Level Anchorage Center
12:15PM 60.8833 -161.3500 257° West 430 495 36,000  Level Anchorage Center
12:16PM 60.8667 -161.6000 262° West 430 495 36,000  Level Anchorage Center
12:17PM 60.8500 -161.8000 260° West 440 506 36,000  Level Anchorage Center
12:18PM 60.8167 -162.0500 255° West 440 506 36,000  Level Anchorage Center
12:19PM 60.8000 -162.3333 263° West 430 495 36,000  Level Anchorage Center
12:20PM 60.7833 -162.5833 262° West 430 495 36,000  Level Anchorage Center
12:21PM 60.7500 -162.8333 255° West 440 506 36,000  Level Anchorage Center
12:22PM 60.7333 -163.0833 262° West 440 506 36,000  Level Anchorage Center
12:23PM 60.7000 -163.3167 254° West 440 506 36,000  Level Anchorage Center
12:24PM 60.6833 -163.5667 262° West 440 506 36,000  Level Anchorage Center
12:25PM 60.6500 -163.8167 255° West 440 506 36,000  Level Anchorage Center
12:26PM 60.6167 -164.0667 255° West 450 518 36,000  Level Anchorage Center
12:27PM 60.6000 -164.3000 262° West 430 495 36,000  Level Anchorage Center
12:28PM 60.5667 -164.5500 255° West 450 518 36,000  Level Anchorage Center
12:29PM 60.5500 -164.8000 262° West 440 506 36,000  Level Anchorage Center
12:31PM 60.5000 -165.2500 257° West 440 506 36,000  Level Anchorage Center
12:32PM 60.4667 -165.4833 254° West 440 506 36,000  Level Anchorage Center
12:33PM 60.4333 -165.7333 255° West 440 506 36,000  Level Anchorage Center
12:34PM 60.4000 -165.9667 254° West 440 506 36,000  Level Anchorage Center
12:35PM 60.3833 -166.2167 262° West 440 506 36,000  Level Anchorage Center
12:36PM 60.3333 -166.5167 252° West 440 506 36,000  Level Anchorage Center
12:37PM 60.3000 -166.7500 254° West 440 506 36,000  Level Anchorage Center
12:38PM 60.2833 -167.0000 262° West 440 506 36,000  Level Anchorage Center
12:39PM 60.2500 -167.2333 254° West 450 518 36,000  Level Anchorage Center
12:40PM 60.2167 -167.4833 255° West 440 506 36,000  Level Anchorage Center
12:41PM 60.1833 -167.7333 255° West 450 518 36,000  Level Anchorage Center
12:42PM 60.1500 -167.9667 254° West 450 518 36,000  Level Anchorage Center
12:43PM 60.1167 -168.2000 254° West 440 506 36,000  Level Anchorage Center
12:44PM 60.0833 -168.4500 255° West 440 506 36,000  Level Anchorage Center
12:46PM 60.0000 -168.9167 251° West 440 506 36,000  Level Anchorage Center
12:47PM 59.9667 -169.1667 255° West 450 518 36,000  Level Anchorage Center
12:49PM 59.9000 -169.6333 254° West 440 506 36,000  Level Anchorage Center
12:50PM 59.8667 -169.8500 253° West 440 506 36,000  Level Anchorage Center
12:51PM 59.8333 -170.0833 254° West 440 506 36,000  Level Anchorage Center
12:52PM 59.8000 -170.3167 254° West 440 506 36,000  Level Anchorage Center
12:53PM 59.7500 -170.5667 248° West 440 506 36,000  Level Anchorage Center
12:54PM 59.7167 -170.8000 254° West 440 506 36,000  Level Anchorage Center
12:55PM 59.6833 -171.0333 254° West 440 506 36,000  Level Anchorage Center
12:56PM 59.6333 -171.2500 246° West 440 506 36,000  Level Anchorage Center
12:57PM 59.6000 -171.4833 254° West 440 506 36,000  Level Anchorage Center
12:58PM 59.5667 -171.7167 254° West 440 506 36,000  Level Anchorage Center
12:59PM 59.5167 -171.9500 247° West 440 506 36,000  Level Anchorage Center
01:00PM 59.4667 -172.1833 247° West 440 506 36,000  Level Anchorage Center
01:01PM 59.4167 -172.4167 247° West 450 518 36,000  Level Anchorage Center
01:02PM 59.3833 -172.6333 253° West 440 506 36,000  Level Anchorage Center
01:03PM 59.3333 -172.8667 247° West 440 506 36,000  Level Anchorage Center
01:04PM 59.2833 -173.0833 246° West 450 518 36,000  Level Anchorage Center
01:06PM 59.1833 -173.5500 247° West 450 518 36,000  Level Anchorage Center
01:07PM 59.1333 -173.7667 246° West 450 518 36,000  Level Anchorage Center
01:08PM 59.0833 -174.0000 247° West 450 518 36,000  Level Anchorage Center
01:09PM 59.0333 -174.2333 247° West 460 529 36,000  Level Anchorage Center
01:10PM 58.9833 -174.4500 246° West 440 506 36,000  Level Anchorage Center
01:11PM 58.9333 -174.6667 246° West 450 518 36,000  Level Anchorage Center
01:12PM 58.9000 -174.9000 255° West 440 506 36,000  Level Anchorage Center
01:13PM 58.8333 -175.1167 239° Southwest 450 518 36,000  Level Anchorage Center
01:14PM 58.8000 -175.3333 254° West 440 506 36,000  Level Anchorage Center
01:15PM 58.7333 -175.5500 239° Southwest 450 518 36,000  Level Anchorage Center
01:16PM 58.6833 -175.7833 248° West 450 518 36,000  Level Anchorage Center
01:17PM 58.6333 -176.0000 246° West 460 529 36,000  Level Anchorage Center
01:18PM 58.5833 -176.2167 246° West 450 518 36,000  Level Anchorage Center
01:19PM 58.5333 -176.4500 248° West 450 518 36,000  Level Anchorage Center
01:20PM 58.4833 -176.6667 246° West 450 518 36,000  Level Anchorage Center
01:21PM 58.4167 -176.8833 240° Southwest 470 541 36,000  Level Anchorage Center
01:23PM 58.3253 -177.2678 245° Southwest  Level FlightAware Approximate
01:25PM 58.1833 -177.8833 244° Southwest 455 524 36,000  Level Anchorage Center
01:30PM 57.9536 -178.7217 245° Southwest  Level FlightAware Approximate
01:31PM 57.8991 -178.9269 244° Southwest  Level FlightAware Approximate
01:32PM 57.8313 -179.2182 243° Southwest 455 524 36,000  Level FlightAware Transoceanic
01:33PM 57.7712 -179.4382 243° Southwest 455 524 36,000  Level FlightAware Transoceanic
01:34PM 57.7108 -179.6573 243° Southwest 455 524 36,000  Level FlightAware Transoceanic
01:35PM 57.6500 -179.8758 242° Southwest 455 524 36,000  Level FlightAware Transoceanic
01:35PM 57.6333 -179.9333 242° Southwest 459 528 36,000  Level Anchorage Center
01:36PM 57.5889 179.9065 242° Southwest 455 524 36,000  Level FlightAware Transoceanic
01:37PM 57.5274 179.6895 242° Southwest 455 524 36,000  Level FlightAware Transoceanic
01:38PM 57.4655 179.4732 242° Southwest 455 524 36,000  Level FlightAware Transoceanic
01:39PM 57.4032 179.2577 242° Southwest 455 524 36,000  Level FlightAware Transoceanic
01:40PM 57.3405 179.0429 242° Southwest 455 524 36,000  Level FlightAware Transoceanic
01:41PM 57.2775 178.8288 241° Southwest 455 524 36,000  Level FlightAware Transoceanic
01:42PM 57.1998 178.5692 241° Southwest 459 528 36,000  Level FlightAware Transoceanic
01:43PM 57.1365 178.3581 241° Southwest 459 528 36,000  Level FlightAware Transoceanic
01:44PM 57.0727 178.1478 241° Southwest 459 528 36,000  Level FlightAware Transoceanic
01:44PM 57.0500 178.0167 240° Southwest 463 533 36,000  Level Anchorage Center
01:45PM 57.0087 177.9382 241° Southwest 459 528 36,000  Level FlightAware Transoceanic
01:46PM 56.9442 177.7294 240° Southwest 459 528 36,000  Level FlightAware Transoceanic
01:47PM 56.8795 177.5212 240° Southwest 459 528 36,000  Level FlightAware Transoceanic
01:48PM 56.8144 177.3138 240° Southwest 459 528 36,000  Level FlightAware Transoceanic
01:48PM 56.8333 177.3500 240° Southwest 463 533 36,000  Level Anchorage Center
01:49PM 56.7489 177.1071 240° Southwest 459 528 36,000  Level FlightAware Transoceanic
01:50PM 56.6831 176.9011 240° Southwest 459 528 36,000  Level FlightAware Transoceanic
01:51PM 56.6507 176.7569 239° Southwest 463 533 36,000  Level FlightAware Transoceanic
01:52PM 56.5829 176.5495 239° Southwest 463 533 36,000  Level FlightAware Transoceanic
01:53PM 56.5148 176.3429 239° Southwest 463 533 36,000  Level FlightAware Transoceanic
01:54PM 56.4462 176.1555 239° Southwest 463 533 36,000  Level FlightAware Transoceanic
01:54PM 56.4167 176.0667 239° Southwest 468 539 36,000  Level Anchorage Center
01:55PM 56.3805 175.9589 239° Southwest 463 533 36,000  Level FlightAware Transoceanic
01:56PM 56.3146 175.7628 239° Southwest 463 533 36,000  Level FlightAware Transoceanic
01:57PM 56.2483 175.5675 238° Southwest 463 533 36,000  Level FlightAware Transoceanic
01:58PM 56.1818 175.3728 238° Southwest 463 533 36,000  Level FlightAware Transoceanic
01:59PM 56.1149 175.1789 238° Southwest 463 533 36,000  Level FlightAware Transoceanic
02:00PM 56.0477 174.9855 238° Southwest 463 533 36,000  Level FlightAware Transoceanic
02:01PM 55.9595 174.7337 238° Southwest 468 539 36,000  Level FlightAware Transoceanic
02:01PM 55.9500 174.7500 237° Southwest 480 552 36,000  Level Anchorage Center
02:02PM 55.8930 174.5459 238° Southwest 468 539 36,000  Level FlightAware Transoceanic
02:02PM 55.9000 174.5667 244° Southwest 480 552 36,000  Level Anchorage Center
02:03PM 55.8263 174.3587 237° Southwest 468 539 36,000  Level FlightAware Transoceanic
02:03PM 55.8167 174.3667 233° Southwest 470 541 36,000  Level Anchorage Center
02:04PM 55.7593 174.1722 237° Southwest 468 539 36,000  Level FlightAware Transoceanic
02:04PM 55.7500 174.1833 237° Southwest 470 541 36,000  Level Anchorage Center
02:05PM 55.6919 173.9863 237° Southwest 468 539 36,000  Level FlightAware Transoceanic
02:05PM 55.6833 173.9833 239° Southwest 470 541 36,000  Level Anchorage Center
02:06PM 55.6243 173.8010 237° Southwest 468 539 36,000  Level FlightAware Transoceanic
02:06PM 55.6167 173.8000 237° Southwest 470 541 36,000  Level Anchorage Center
02:07PM 55.5333 173.6000 234° Southwest 470 541 36,000  Level Anchorage Center
02:08PM 55.4667 173.3833 242° Southwest 470 541 36,000  Level Anchorage Center
02:09PM 55.4000 173.2167 235° Southwest 470 541 36,000  Level Anchorage Center
02:10PM 55.3167 173.0167 234° Southwest 470 541 36,000  Level Anchorage Center
02:11PM 55.2500 172.8333 238° Southwest 480 552 36,000  Level Anchorage Center
02:12PM 55.1833 172.6333 240° Southwest 470 541 36,000  Level Anchorage Center
02:13PM 55.1167 172.4667 235° Southwest 460 529 36,000  Level Anchorage Center
02:14PM 55.0333 172.2667 234° Southwest 470 541 36,000  Level Anchorage Center
02:15PM 54.9500 172.0500 236° Southwest 470 541 36,000  Level Anchorage Center
02:16PM 54.8833 171.9000 232° Southwest 470 541 36,000  Level Anchorage Center
02:17PM 54.8000 171.7000 234° Southwest 470 541 36,000  Level Anchorage Center
02:18PM 54.7333 171.5333 235° Southwest 480 552 36,000  Level Anchorage Center
02:19PM 54.6667 171.3333 240° Southwest 470 541 36,000  Level Anchorage Center
02:20PM 54.6000 171.1833 233° Southwest 460 529 36,000  Level Anchorage Center
02:21PM 54.5167 170.9833 234° Southwest 470 541 36,000  Level Anchorage Center
02:22PM 54.4500 170.8333 233° Southwest 460 529 36,000  Level Anchorage Center
02:23PM 54.3500 170.6333 229° Southwest 490 564 36,000  Level Anchorage Center
02:24PM 54.2667 170.4333 235° Southwest 470 541 36,000  Level Anchorage Center
02:25PM 54.2000 170.2667 236° Southwest 490 564 36,000  Level Anchorage Center
02:26PM 54.1167 170.0833 232° Southwest 460 529 36,000  Level Anchorage Center
02:27PM 54.0500 169.9333 233° Southwest 460 529 36,000  Level Anchorage Center
02:28PM 53.9667 169.7333 235° Southwest 470 541 36,000  Level Anchorage Center
02:29PM 53.9000 169.5833 233° Southwest 460 529 36,000  Level Anchorage Center
02:30PM 53.8167 169.3833 235° Southwest 470 541 36,000  Level Anchorage Center
02:31PM 53.7333 169.2000 233° Southwest 490 564 36,000  Level Anchorage Center
02:32PM 53.6667 169.0333 236° Southwest 490 564 36,000  Level Anchorage Center
02:33PM 53.6000 168.8167 243° Southwest 480 552 36,000  Level Anchorage Center
02:34PM 53.5333 168.6500 236° Southwest 490 564 36,000  Level Anchorage Center
02:36PM 53.4167 168.2333 240° Southwest 463 533 36,000  Level Anchorage Center
02:42PM 53.0253 167.1334 239° Southwest 463 533 36,000  Level FlightAware Transoceanic
02:42PM 53.0000 167.0833 239° Southwest 463 533 36,000  Level Anchorage Center
02:43PM 52.9590 166.9520 239° Southwest 463 533 36,000  Level FlightAware Transoceanic
02:44PM 52.8926 166.7712 239° Southwest 463 533 36,000  Level FlightAware Transoceanic
02:45PM 52.8258 166.5909 238° Southwest 463 533 36,000  Level FlightAware Transoceanic
02:46PM 52.7588 166.4112 238° Southwest 463 533 36,000  Level FlightAware Transoceanic
02:47PM 52.6915 166.2321 238° Southwest 463 533 36,000  Level FlightAware Transoceanic
02:48PM 52.6239 166.0535 238° Southwest 463 533 36,000  Level FlightAware Transoceanic
02:49PM 52.5342 165.8340 238° Southwest 463 533 36,000  Level FlightAware Transoceanic
02:50PM 52.4666 165.6578 238° Southwest 463 533 36,000  Level FlightAware Transoceanic
02:51PM 52.3987 165.4820 238° Southwest 463 533 36,000  Level FlightAware Transoceanic
02:52PM 52.3306 165.3068 237° Southwest 463 533 36,000  Level FlightAware Transoceanic
02:52PM 52.3333 165.3333 238° Southwest 465 535 36,000  Level Anchorage Center
02:53PM 52.2622 165.1321 237° Southwest 463 533 36,000  Level FlightAware Transoceanic
02:54PM 52.1936 164.9580 237° Southwest 463 533 36,000  Level FlightAware Transoceanic
02:55PM 52.1246 164.7844 237° Southwest 463 533 36,000  Level FlightAware Transoceanic
02:56PM 52.0555 164.6113 237° Southwest 463 533 36,000  Level FlightAware Transoceanic
02:57PM 51.9861 164.4388 237° Southwest 463 533 36,000  Level FlightAware Transoceanic
02:58PM 51.9189 164.2887 237° Southwest 465 535 36,000  Level FlightAware Transoceanic
02:59PM 51.8490 164.1165 237° Southwest 465 535 36,000  Level FlightAware Transoceanic
03:00PM 51.7788 163.9448 236° Southwest 465 535 36,000  Level FlightAware Transoceanic
03:01PM 51.7083 163.7736 236° Southwest 465 535 36,000  Level FlightAware Transoceanic
03:02PM 51.6376 163.6030 236° Southwest 465 535 36,000  Level FlightAware Transoceanic
03:02PM 51.6500 163.6500 236° Southwest 465 535 36,000  Level Anchorage Center
03:03PM 51.5666 163.4329 236° Southwest 465 535 36,000  Level FlightAware Transoceanic
03:04PM 51.4954 163.2634 236° Southwest 465 535 36,000  Level FlightAware Transoceanic
03:05PM 51.4240 163.0944 236° Southwest 465 535 36,000  Level FlightAware Transoceanic
03:06PM 51.3523 162.9259 236° Southwest 465 535 36,000  Level FlightAware Transoceanic
03:07PM 51.2804 162.7579 236° Southwest 465 535 36,000  Level FlightAware Transoceanic
03:08PM 51.2181 162.6260 236° Southwest 465 535 36,000  Level FlightAware Transoceanic
03:09PM 51.1452 162.4572 235° Southwest 465 535 36,000  Level FlightAware Transoceanic
03:10PM 51.0721 162.2890 235° Southwest 465 535 36,000  Level FlightAware Transoceanic
03:11PM 50.9988 162.1213 235° Southwest 465 535 36,000  Level FlightAware Transoceanic
03:11PM 50.9500 162.0167 235° Southwest 464 534 36,000  Level Anchorage Center
03:12PM 50.9252 161.9541 235° Southwest 465 535 36,000  Level FlightAware Transoceanic
03:13PM 50.8514 161.7874 235° Southwest 465 535 36,000  Level FlightAware Transoceanic
03:14PM 50.7774 161.6213 235° Southwest 465 535 36,000  Level FlightAware Transoceanic
03:15PM 50.7031 161.4557 235° Southwest 465 535 36,000  Level FlightAware Transoceanic
03:16PM 50.6286 161.2906 234° Southwest 465 535 36,000  Level FlightAware Transoceanic
03:17PM 50.5217 161.0596 234° Southwest 464 534 36,000  Level FlightAware Transoceanic
03:18PM 50.4496 160.9018 234° Southwest 464 534 36,000  Level FlightAware Transoceanic
03:19PM 50.3772 160.7445 234° Southwest 464 534 36,000  Level FlightAware Transoceanic
03:20PM 50.3046 160.5877 234° Southwest 464 534 36,000  Level FlightAware Transoceanic
03:20PM 50.2333 160.4333 234° Southwest 439 505 36,000  Level Anchorage Center
03:21PM 50.2319 160.4313 234° Southwest 464 534 36,000  Level FlightAware Transoceanic
03:21PM 50.2000 160.3833 234° Southwest 462 532 36,000  Level Anchorage Center
03:22PM 50.1589 160.2754 234° Southwest 464 534 36,000  Level FlightAware Transoceanic
03:23PM 50.0857 160.1200 234° Southwest 464 534 36,000  Level FlightAware Transoceanic
03:24PM 50.0123 159.9650 234° Southwest 464 534 36,000  Level FlightAware Transoceanic
03:25PM 49.9387 159.8106 233° Southwest 464 534 36,000  Level FlightAware Transoceanic
03:26PM 49.8649 159.6566 233° Southwest 464 534 36,000  Level FlightAware Transoceanic
03:27PM 49.7863 159.4964 234° Southwest 462 532 36,000  Level FlightAware Transoceanic
03:28PM 49.7167 159.3500 233° Southwest 462 532 36,000  Level FlightAware Transoceanic
03:29PM 49.6394 159.1923 233° Southwest 462 532 36,000  Level FlightAware Transoceanic
03:30PM 49.5619 159.0351 233° Southwest 462 532 36,000  Level FlightAware Transoceanic
03:31PM 49.4843 158.8784 233° Southwest 462 532 36,000  Level FlightAware Transoceanic
03:32PM 49.4064 158.7222 232° Southwest 462 532 36,000  Level FlightAware Transoceanic
03:33PM 49.3283 158.5665 232° Southwest 462 532 36,000  Level FlightAware Transoceanic
03:34PM 49.2500 158.4113 232° Southwest 462 532 36,000  Level FlightAware Transoceanic
03:35PM 49.1714 158.2565 232° Southwest 462 532 36,000  Level FlightAware Transoceanic
03:36PM 49.0927 158.1023 232° Southwest 462 532 36,000  Level FlightAware Transoceanic
03:37PM 49.0138 157.9485 232° Southwest 462 532 36,000  Level FlightAware Transoceanic
03:38PM 48.9347 157.7953 232° Southwest 462 532 36,000  Level FlightAware Transoceanic
03:39PM 48.8553 157.6425 232° Southwest 462 532 36,000  Level FlightAware Transoceanic
03:40PM 48.7758 157.4902 232° Southwest 462 532 36,000  Level FlightAware Transoceanic
03:41PM 48.6960 157.3384 231° Southwest 462 532 36,000  Level FlightAware Transoceanic
03:42PM 48.6161 157.1871 231° Southwest 462 532 36,000  Level FlightAware Transoceanic
03:43PM 48.5360 157.0362 231° Southwest 462 532 36,000  Level FlightAware Transoceanic
03:44PM 48.4557 156.8859 231° Southwest 462 532 36,000  Level FlightAware Transoceanic
03:45PM 48.3751 156.7360 231° Southwest 462 532 36,000  Level FlightAware Transoceanic
03:46PM 48.2944 156.5865 231° Southwest 462 532 36,000  Level FlightAware Transoceanic
03:47PM 48.2135 156.4376 231° Southwest 462 532 36,000  Level FlightAware Transoceanic
03:48PM 48.1324 156.2891 231° Southwest 462 532 36,000  Level FlightAware Transoceanic
03:49PM 48.0511 156.1411 231° Southwest 462 532 36,000  Level FlightAware Transoceanic
03:50PM 47.9696 155.9936 230° Southwest 462 532 36,000  Level FlightAware Transoceanic
03:51PM 47.8880 155.8465 230° Southwest 462 532 36,000  Level FlightAware Transoceanic
03:52PM 47.8061 155.6999 230° Southwest 462 532 36,000  Level FlightAware Transoceanic
03:53PM 47.7240 155.5537 230° Southwest 462 532 36,000  Level FlightAware Transoceanic
03:54PM 47.6418 155.4080 230° Southwest 462 532 36,000  Level FlightAware Transoceanic
03:55PM 47.5594 155.2628 230° Southwest 462 532 36,000  Level FlightAware Transoceanic
03:56PM 47.4768 155.1180 230° Southwest 462 532 36,000  Level FlightAware Transoceanic
03:57PM 47.3940 154.9737 230° Southwest 462 532 36,000  Level FlightAware Transoceanic
03:58PM 47.3111 154.8298 230° Southwest 462 532 36,000  Level FlightAware Transoceanic
03:59PM 47.2279 154.6864 229° Southwest 462 532 36,000  Level FlightAware Transoceanic
04:00PM 47.1446 154.5435 229° Southwest 462 532 36,000  Level FlightAware Transoceanic
04:01PM 47.0611 154.4009 229° Southwest 462 532 36,000  Level FlightAware Transoceanic
04:02PM 46.9775 154.2589 229° Southwest 462 532 36,000  Level FlightAware Transoceanic
04:03PM 46.8936 154.1172 229° Southwest 462 532 36,000  Level FlightAware Transoceanic
04:04PM 46.8096 153.9760 229° Southwest 462 532 36,000  Level FlightAware Transoceanic
04:05PM 46.7254 153.8353 229° Southwest 462 532 36,000  Level FlightAware Transoceanic
04:06PM 46.6410 153.6950 229° Southwest 462 532 36,000  Level FlightAware Transoceanic
04:07PM 46.5565 153.5551 229° Southwest 462 532 36,000  Level FlightAware Transoceanic
04:08PM 46.4718 153.4157 229° Southwest 462 532 36,000  Level FlightAware Transoceanic
04:09PM 46.3869 153.2767 228° Southwest 462 532 36,000  Level FlightAware Transoceanic
04:10PM 46.3019 153.1381 228° Southwest 462 532 36,000  Level FlightAware Transoceanic
04:11PM 46.2208 153.0066 228° Southwest  Level FlightAware Approximate
04:12PM 46.1395 152.8755 228° Southwest  Level FlightAware Approximate
04:13PM 46.1431 152.8827 228° Southwest  Level FlightAware Approximate
04:14PM 46.0612 152.7525 228° Southwest  Level FlightAware Approximate
04:15PM 45.9792 152.6228 228° Southwest  Level FlightAware Approximate
04:16PM 45.8969 152.4935 228° Southwest  Level FlightAware Approximate
04:17PM 45.8146 152.3645 228° Southwest  Level FlightAware Approximate
04:18PM 45.7321 152.2359 227° Southwest  Level FlightAware Approximate
04:19PM 45.6495 152.1077 227° Southwest  Level FlightAware Approximate
04:20PM 45.5667 151.9799 227° Southwest  Level FlightAware Approximate
04:21PM 45.4837 151.8524 227° Southwest  Level FlightAware Approximate
04:22PM 45.4007 151.7254 227° Southwest  Level FlightAware Approximate
04:23PM 45.3175 151.5987 227° Southwest  Level FlightAware Approximate
04:24PM 45.2341 151.4724 227° Southwest  Level FlightAware Approximate
04:25PM 45.1506 151.3464 227° Southwest  Level FlightAware Approximate
04:26PM 45.0670 151.2208 227° Southwest  Level FlightAware Approximate
04:27PM 44.9832 151.0956 227° Southwest  Level FlightAware Approximate
04:28PM 44.8993 150.9707 227° Southwest  Level FlightAware Approximate
04:29PM 44.8153 150.8462 226° Southwest  Level FlightAware Approximate
04:30PM 44.7312 150.7221 226° Southwest  Level FlightAware Approximate
04:31PM 44.6469 150.5983 226° Southwest  Level FlightAware Approximate
04:32PM 44.5624 150.4749 226° Southwest  Level FlightAware Approximate
04:33PM 44.4778 150.3519 226° Southwest  Level FlightAware Approximate
04:34PM 44.3931 150.2292 226° Southwest  Level FlightAware Approximate
04:35PM 44.3083 150.1068 226° Southwest  Level FlightAware Approximate
04:36PM 44.2234 149.9848 226° Southwest  Level FlightAware Approximate
04:37PM 44.1383 149.8632 226° Southwest  Level FlightAware Approximate
04:38PM 44.0530 149.7419 226° Southwest  Level FlightAware Approximate
04:39PM 43.9677 149.6210 226° Southwest  Level FlightAware Approximate
04:40PM 43.8822 149.5004 226° Southwest  Level FlightAware Approximate
04:41PM 43.7966 149.3802 225° Southwest  Level FlightAware Approximate
04:42PM 43.7109 149.2603 225° Southwest  Level FlightAware Approximate
04:43PM 43.6250 149.1407 225° Southwest  Level FlightAware Approximate
04:44PM 43.5391 149.0215 225° Southwest  Level FlightAware Approximate
04:45PM 43.4530 148.9026 225° Southwest  Level FlightAware Approximate
04:45PM 43.2930 148.6830 225° Southwest 432 497 36,000  Level FlightAware
04:46PM 43.3667 148.7841 225° Southwest  Level FlightAware Approximate
04:46PM 43.2380 148.6080 225° Southwest 431 496 36,000  Level FlightAware
04:47PM 43.1710 148.5160 225° Southwest 431 496 36,000  Level FlightAware
04:47PM 43.1170 148.4440 224° Southwest 432 497 36,000  Level FlightAware
04:48PM 43.0530 148.3570 225° Southwest 432 497 36,000  Level FlightAware
04:49PM 42.9910 148.2730 225° Southwest 433 498 36,000  Level FlightAware
04:50PM 42.8930 148.1410 225° Southwest 433 498 36,000  Level FlightAware
04:51PM 42.8360 148.0650 224° Southwest 434 499 36,000  Level FlightAware
04:51PM 42.7830 147.9940 225° Southwest 433 498 36,000  Level FlightAware
04:52PM 42.7160 147.9040 225° Southwest 433 498 36,000  Level FlightAware
04:53PM 42.6160 147.7710 224° Southwest 433 498 36,000  Level FlightAware
04:54PM 42.5690 147.7100 224° Southwest 432 497 36,000  Level FlightAware
04:55PM 42.4940 147.6110 224° Southwest 432 497 36,000  Level FlightAware
04:55PM 42.4370 147.5360 224° Southwest 432 497 36,000  Level FlightAware
04:56PM 42.3810 147.4620 224° Southwest 428 493 36,000  Level FlightAware
04:57PM 42.3150 147.3770 224° Southwest 427 491 36,000  Level FlightAware
04:57PM 42.2530 147.2940 225° Southwest 427 491 36,000  Level FlightAware
04:58PM 42.1940 147.2180 224° Southwest 428 493 36,000  Level FlightAware
04:59PM 42.1080 147.1060 224° Southwest 428 493 36,000  Level FlightAware
05:00PM 41.9790 146.9400 224° Southwest 429 494 36,000  Level FlightAware
05:01PM 41.9040 146.8440 224° Southwest 429 494 36,000  Level FlightAware
05:02PM 41.8030 146.7140 224° Southwest 429 494 36,000  Level FlightAware
05:04PM 41.6890 146.5680 224° Southwest 428 493 36,000  Level FlightAware
05:05PM 41.5840 146.4350 223° Southwest 427 491 36,000  Level FlightAware
05:06PM 41.5350 146.3720 224° Southwest 426 490 36,000  Level FlightAware
05:06PM 41.4620 146.2810 223° Southwest 425 489 36,000  Level FlightAware
05:07PM 41.3890 146.1890 223° Southwest 426 490 36,000  Level FlightAware
05:10PM 41.1828 145.9364 223° Southwest  Level FlightAware Approximate
05:11PM 41.0942 145.8251 224° Southwest  Level FlightAware Approximate
05:11PM 41.0830 145.8070 224° Southwest 426 490 36,000  Level FlightAware
05:11PM 41.0190 145.7270 223° Southwest 425 489 36,000  Level FlightAware
05:13PM 40.9150 145.5990 223° Southwest 422 486 36,000  Level FlightAware
05:13PM 40.8730 145.5460 224° Southwest 422 486 36,000  Level FlightAware
05:15PM 40.7270 145.3680 223° Southwest 419 482 36,000  Level FlightAware
05:16PM 40.6410 145.2640 223° Southwest 420 483 36,000  Level FlightAware
05:17PM 40.5930 145.2050 223° Southwest 420 483 36,000  Level FlightAware
05:17PM 40.5130 145.1090 222° Southwest 422 486 36,000  Level FlightAware
05:18PM 40.4650 145.0490 224° Southwest 422 486 36,000  Level FlightAware
05:19PM 40.4160 144.9900 223° Southwest 422 486 36,000  Level FlightAware
05:19PM 40.3680 144.9300 224° Southwest 422 486 36,000  Level FlightAware
05:20PM 40.3070 144.8560 223° Southwest 422 486 36,000  Level FlightAware
05:21PM 40.2590 144.7960 224° Southwest 422 486 36,000  Level FlightAware
05:22PM 40.2100 144.7370 223° Southwest 422 486 36,000  Level FlightAware
05:22PM 40.1610 144.6780 223° Southwest 422 486 36,000  Level FlightAware
05:23PM 40.1010 144.6040 223° Southwest 422 486 36,000  Level FlightAware
05:24PM 40.0520 144.5450 223° Southwest 422 486 36,000  Level FlightAware
05:24PM 40.0040 144.4860 223° Southwest 422 486 36,000  Level FlightAware
05:25PM 39.9550 144.4270 223° Southwest 422 486 36,000  Level FlightAware
05:26PM 39.9070 144.3680 223° Southwest 422 486 36,000  Level FlightAware
05:26PM 39.8580 144.3090 223° Southwest 422 486 36,000  Level FlightAware
05:29PM 39.6640 144.0838 222° Southwest  Level FlightAware Approximate
05:30PM 39.5730 143.9787 222° Southwest  Level FlightAware Approximate
05:31PM 39.4818 143.8739 222° Southwest  Level FlightAware Approximate
05:32PM 39.3905 143.7693 222° Southwest  Level FlightAware Approximate
05:33PM 39.2992 143.6651 221° Southwest  Level FlightAware Approximate
05:34PM 39.2078 143.5611 221° Southwest  Level FlightAware Approximate
05:35PM 39.1159 143.4577 221° Southwest  Level FlightAware Approximate
05:36PM 39.0239 143.3548 221° Southwest  Level FlightAware Approximate
05:37PM 38.9319 143.2521 221° Southwest  Level FlightAware Approximate
05:38PM 38.8235 143.1877 196° South  Level FlightAware Approximate
05:38PM 38.3970 143.3160 196° South 443 510 36,000  Level FlightAware
05:39PM 38.3120 143.2730 202° Southwest 440 506 36,000  Level FlightAware
05:40PM 38.2400 143.2370 201° Southwest 440 506 36,000  Level FlightAware
05:40PM 38.1760 143.2040 202° Southwest 440 506 36,000  Level FlightAware
05:41PM 38.0920 143.1630 201° Southwest 437 503 36,000  Level FlightAware
05:42PM 38.0080 143.1200 202° Southwest 434 499 36,000  Level FlightAware
05:43PM 37.8980 143.0650 202° Southwest 432 497 36,000  Level FlightAware
05:44PM 37.8140 143.0230 202° Southwest 431 496 36,000  Level FlightAware
05:44PM 37.7400 142.9860 202° Southwest 431 496 36,000  Level FlightAware
05:45PM 37.6550 142.9440 201° Southwest 432 497 36,000  Level FlightAware
05:46PM 37.5800 142.9070 201° Southwest 431 496 36,000  Level FlightAware
05:46PM 37.5060 142.8700 202° Southwest 433 498 36,000  Level FlightAware
05:47PM 37.4210 142.8280 201° Southwest 433 498 36,000  Level FlightAware
05:48PM 37.3490 142.7930 201° Southwest 433 498 36,000  Level FlightAware
05:48PM 37.2710 142.7540 202° Southwest 432 497 36,000  Level FlightAware
05:49PM 37.1900 142.7100 203° Southwest 424 488 36,000  Level FlightAware
05:50PM 37.1190 142.6670 206° Southwest 431 496 36,000  Level FlightAware
05:51PM 37.0350 142.6170 205° Southwest 430 495 36,000  Level FlightAware
05:51PM 36.9650 142.5750 206° Southwest 430 495 36,000  Level FlightAware
05:52PM 36.8840 142.5270 205° Southwest 429 494 36,000  Level FlightAware
05:53PM 36.8120 142.4840 206° Southwest 430 495 36,000  Level FlightAware
05:53PM 36.7380 142.4410 205° Southwest 430 495 36,000  Level FlightAware
05:54PM 36.6660 142.3990 205° Southwest 430 495 36,000  Level FlightAware
05:55PM 36.5670 142.3410 205° Southwest 431 496 36,000  Level FlightAware
05:56PM 36.4640 142.2810 205° Southwest 431 496 36,000 -360 Level FlightAware
05:57PM 36.3910 142.2380 205° Southwest 435 501 35,500 -900 Descending FlightAware
05:57PM 36.3090 142.1910 205° Southwest 431 496 34,800 -960 Descending FlightAware
05:58PM 36.2370 142.1490 205° Southwest 427 491 34,200 -960 Descending FlightAware
05:59PM 36.1710 142.1110 205° Southwest 428 493 33,600 -720 Descending FlightAware
05:59PM 36.0890 142.0630 205° Southwest 420 483 33,200 -660 Descending FlightAware
06:00PM 35.9880 142.0050 205° Southwest 414 476 32,500 -720 Descending FlightAware
06:01PM 35.9110 141.9610 205° Southwest 411 473 32,000 -960 Descending FlightAware
06:02PM 35.8460 141.9130 211° Southwest 397 457 31,200 -1,920 Descending FlightAware
06:02PM 35.8140 141.8340 243° Southwest 378 435 29,500 -2,940 Descending FlightAware
06:03PM 35.8150 141.7420 271° West 361 415 27,100 -3,360 Descending FlightAware
06:04PM 35.8190 141.6600 273° West 353 406 24,800 -3,360 Descending FlightAware
06:05PM 35.8230 141.5710 273° West 342 394 22,400 -3,180 Descending FlightAware
06:05PM 35.8260 141.4930 273° West 338 389 20,300 -3,060 Descending FlightAware
06:06PM 35.8290 141.4080 273° West 330 380 18,100 -2,940 Descending FlightAware
06:07PM 35.8320 141.3340 273° West 319 367 16,200 -2,580 Descending FlightAware
06:07PM 35.8350 141.2620 273° West 320 368 14,700 -2,100 Descending FlightAware
06:08PM 35.8380 141.1800 273° West 319 367 13,300 -1,920 Descending FlightAware
06:09PM 35.8310 141.1070 263° West 317 365 12,000 -1,920 Descending FlightAware
06:09PM 35.8240 141.0370 263° West 317 365 10,800 -1,320 Descending FlightAware
06:10PM 35.8170 140.9570 264° West 303 349 10,200 -840 Descending FlightAware
06:11PM 35.8130 140.9080 264° West 277 319 9,800 -1,020 Descending FlightAware
06:11PM 35.8100 140.8710 264° West 254 292 9,300 -1,380 Descending FlightAware
06:11PM 35.8080 140.8490 264° West 249 287 8,900 -2,040 Descending FlightAware
06:12PM 35.8060 140.8070 267° West 246 283 7,800 -1,860 Descending FlightAware
06:12PM 35.8040 140.7740 266° West 235 270 7,200 -1,440 Descending FlightAware
06:13PM 35.8020 140.7350 266° West 220 253 6,500 -1,320 Descending FlightAware
06:13PM 35.8010 140.7040 268° West 214 246 6,000 -600 Descending FlightAware
06:14PM 35.7990 140.6670 266° West 211 243 6,000  Level FlightAware
06:14PM 35.8090 140.6220 285° West 230 265 6,000  Level FlightAware
06:15PM 35.8210 140.6140 332° Northwest 238 274 6,000  Level FlightAware
06:15PM 35.8550 140.5980 339° North 237 273 6,000  Level FlightAware
06:15PM 35.8810 140.5850 338° Northwest 238 274 6,000  Level FlightAware
06:16PM 35.9060 140.5620 323° Northwest 227 261 6,000  Level FlightAware
06:16PM 35.9210 140.5380 308° West 229 264 6,000  Level FlightAware
06:17PM 35.9340 140.5170 307° West 229 264 6,000 -300 Level FlightAware
06:17PM 35.9610 140.4750 308° West 219 252 5,700 -780 Descending FlightAware
06:18PM 35.9800 140.4440 307° West 220 253 5,100 -1,200 Descending FlightAware
06:18PM 35.9830 140.4260 282° West 210 242 4,800 -1,200 Descending FlightAware
06:19PM 35.9810 140.3960 265° West 210 242 4,300 -1,140 Descending FlightAware
06:19PM 35.9800 140.3620 268° West 213 245 3,800 -1,080 Descending FlightAware
06:19PM 35.9760 140.3400 257° West 207 238 3,400 -780 Descending FlightAware
06:20PM 35.9630 140.3030 247° West 192 221 3,100 -420 Descending FlightAware
06:20PM 35.9560 140.2810 249° West 180 207 3,000 -180 Descending FlightAware
06:21PM 35.9470 140.2660 233° Southwest 175 201 3,000  Level FlightAware
06:21PM 35.9390 140.2630 197° South 177 204 3,000 -180 Level FlightAware
06:21PM 35.9240 140.2640 177° South 180 207 2,900 -300 Descending FlightAware
06:22PM 35.9110 140.2680 166° South 186 214 2,800 -360 Descending FlightAware
06:22PM 35.8850 140.2880 148° Southeast 158 182 2,600 -600 Descending FlightAware
06:23PM 35.8660 140.3020 149° Southeast 154 177 2,200 -780 Descending FlightAware
06:23PM 35.8520 140.3120 150° Southeast 147 169 1,900 -780 Descending FlightAware
06:23PM 35.8360 140.3230 151° Southeast 126 145 1,500 -780 Descending FlightAware
06:24PM 35.8230 140.3330 148° Southeast 128 147 1,200 -600 Descending FlightAware
06:24PM 35.8100 140.3420 151° Southeast 133 153 1,000 -720 Descending FlightAware
06:25PM 35.7910 140.3560 149° Southeast 129 148 500 -480 Descending FlightAware
06:25PM 35.7780 140.3660 148° Southeast 129 148 500  Level FlightAware
06:28PM 35.7647 140.3864 253° West  Level Estimated
06:29PM 35.7647 140.3864 253° West  Level Estimated
06:30PM 35.7647 140.3864 253° West  Level Estimated
06:31PM 35.7647 140.3864 253° West  Level Estimated
06:32PM 35.7647 140.3864 253° West  Level Estimated
06:33PM 35.7647 140.3864 253° West  Level Estimated